Time;durP1;ratioP1;P1;durP2;ratioP2;P2;SDS_P1;SDS_P2;PMS_P1;PMS_P2;Temp;Humidity;BMP_temperature;BMP_pressure;BME280_temperature;BME280_humidity;BME280_pressure;Samples;Min_cycle;Max_cycle;Signal;HPM_P1;HPM_P2
2023/04/24 00:01:59;;;;;;;2.07;0.57;;;;;;;11.22;83.86;97638.47;5054352;28;20237;-63
2023/04/24 00:04:26;;;;;;;0.93;0.47;;;;;;;11.22;83.87;97641.09;5056891;28;20284;-63
2023/04/24 00:06:56;;;;;;;2.33;0.43;;;;;;;11.29;84.30;97643.78;5051889;28;21007;-63
2023/04/24 00:09:23;;;;;;;3.60;0.73;;;;;;;11.35;84.05;97630.81;5053730;28;20228;-63
2023/04/24 00:11:51;;;;;;;3.70;0.60;;;;;;;11.34;83.91;97637.03;5054147;28;20234;-63
2023/04/24 00:14:24;;;;;;;1.70;0.70;;;;;;;11.42;82.88;97643.97;5056876;28;20265;-63
2023/04/24 00:16:51;;;;;;;1.63;0.97;;;;;;;11.44;83.55;97649.81;5050958;28;20218;-63
2023/04/24 00:19:21;;;;;;;2.47;0.43;;;;;;;11.42;83.43;97643.16;5055982;28;20298;-63
2023/04/24 00:21:49;;;;;;;1.40;0.57;;;;;;;11.46;83.50;97645.22;5054148;28;20233;-63
2023/04/24 00:24:19;;;;;;;3.07;0.40;;;;;;;11.45;84.05;97645.41;5056127;28;20226;-63
2023/04/24 00:26:46;;;;;;;1.63;0.40;;;;;;;11.46;83.04;97657.50;5048281;28;20269;-63
2023/04/24 00:29:39;;;;;;;3.47;0.50;;;;;;;11.44;84.57;97655.03;5053193;28;20703;-62
2023/04/24 00:32:06;;;;;;;4.43;0.80;;;;;;;11.43;84.78;97650.81;5028334;28;20226;-62
2023/04/24 00:34:33;;;;;;;0.77;0.53;;;;;;;11.44;84.08;97635.97;5038582;28;20224;-62
2023/04/24 00:37:00;;;;;;;1.20;0.50;;;;;;;11.43;86.01;97634.34;5049754;28;20223;-61
2023/04/24 00:39:26;;;;;;;1.93;0.60;;;;;;;11.43;84.42;97631.72;5053076;28;20249;-61
2023/04/24 00:41:53;;;;;;;1.17;0.60;;;;;;;11.45;83.59;97632.34;5050663;28;20238;-63
2023/04/24 00:44:20;;;;;;;2.10;0.67;;;;;;;11.43;84.20;97634.34;5059300;28;20230;-63
2023/04/24 00:46:51;;;;;;;2.27;0.70;;;;;;;11.35;84.64;97643.88;5051326;28;20226;-60
2023/04/24 00:49:19;;;;;;;3.77;0.70;;;;;;;11.40;83.01;97639.94;5052853;28;20226;-61
2023/04/24 00:51:46;;;;;;;2.37;0.73;;;;;;;11.43;82.38;97644.78;5053697;28;20224;-63
2023/04/24 00:54:38;;;;;;;3.70;0.73;;;;;;;11.36;84.77;97655.13;5053052;28;20732;-63
2023/04/24 00:57:05;;;;;;;2.40;0.70;;;;;;;11.25;85.44;97645.13;5049314;28;20300;-63
2023/04/24 00:59:32;;;;;;;2.47;0.70;;;;;;;11.27;84.42;97649.19;5053889;28;20686;-63
2023/04/24 01:02:00;;;;;;;3.93;0.70;;;;;;;11.28;85.15;97655.22;5049273;28;20768;-63
2023/04/24 01:04:27;;;;;;;1.13;0.50;;;;;;;11.28;85.61;97648.22;5052362;28;20750;-63
2023/04/24 01:06:55;;;;;;;0.93;0.40;;;;;;;11.28;85.98;97642.16;5059430;28;20704;-62
2023/04/24 01:09:23;;;;;;;2.87;0.50;;;;;;;11.30;85.62;97651.44;5056877;28;20700;-62
2023/04/24 01:11:51;;;;;;;3.17;0.57;;;;;;;11.30;86.31;97645.41;5057888;28;20581;-63
2023/04/24 01:14:20;;;;;;;2.30;0.50;;;;;;;11.31;85.87;97644.41;5060491;28;20226;-62
2023/04/24 01:16:50;;;;;;;2.80;0.80;;;;;;;11.33;87.37;97632.81;5058609;28;20222;-62
2023/04/24 01:19:22;;;;;;;3.00;0.90;;;;;;;11.37;86.21;97633.25;5061719;28;20225;-62
2023/04/24 01:21:54;;;;;;;1.50;0.80;;;;;;;11.36;86.55;97632.44;5071840;28;20260;-62
2023/04/24 01:24:22;;;;;;;1.47;0.60;;;;;;;11.35;89.89;97646.50;5065583;28;20696;-62
2023/04/24 01:26:49;;;;;;;4.63;0.70;;;;;;;11.30;90.86;97651.44;5056688;28;20222;-62
2023/04/24 01:29:20;;;;;;;3.00;0.60;;;;;;;11.34;90.70;97646.66;5073613;28;20229;-62
2023/04/24 01:31:46;;;;;;;2.20;0.60;;;;;;;11.22;96.49;97660.16;5054181;28;20226;-62
2023/04/24 01:34:19;;;;;;;4.27;0.50;;;;;;;11.11;94.98;97644.13;5075773;28;20226;-63
2023/04/24 01:36:47;;;;;;;3.40;0.80;;;;;;;10.99;99.22;97660.22;5071398;28;20226;-62
2023/04/24 01:39:22;;;;;;;2.93;0.70;;;;;;;10.89;100.00;97662.28;5061248;28;20253;-62
2023/04/24 01:41:51;;;;;;;0.93;0.60;;;;;;;10.78;100.00;97653.88;5056600;28;20226;-62
2023/04/24 01:44:20;;;;;;;4.43;1.13;;;;;;;10.67;100.00;97650.88;5066962;28;20234;-62
2023/04/24 01:46:46;;;;;;;3.93;0.63;;;;;;;10.66;100.00;97642.22;5057363;28;20223;-62
2023/04/24 01:49:39;;;;;;;1.43;0.63;;;;;;;10.57;100.00;97641.50;5060805;28;20720;-62
2023/04/24 01:52:07;;;;;;;1.17;0.70;;;;;;;10.53;100.00;97629.78;5040784;28;20235;-62
2023/04/24 01:54:34;;;;;;;1.63;0.67;;;;;;;10.53;100.00;97632.41;5055037;28;20230;-62
2023/04/24 01:57:03;;;;;;;5.07;0.70;;;;;;;10.47;100.00;97626.09;5053546;28;20241;-62
2023/04/24 01:59:30;;;;;;;4.90;0.70;;;;;;;10.40;100.00;97633.00;5057018;28;20214;-62
2023/04/24 02:01:57;;;;;;;1.03;0.60;;;;;;;10.29;100.00;97625.53;5055700;28;20321;-62
2023/04/24 02:04:24;;;;;;;1.93;0.57;;;;;;;10.22;100.00;97625.41;5059277;28;20233;-62
2023/04/24 02:06:51;;;;;;;1.70;0.70;;;;;;;10.13;100.00;97619.44;5052547;28;20257;-62
2023/04/24 02:09:19;;;;;;;2.03;0.60;;;;;;;10.11;100.00;97631.84;5074644;28;20230;-62
2023/04/24 02:11:46;;;;;;;1.80;0.70;;;;;;;10.09;100.00;97606.91;5058606;28;20221;-62
2023/04/24 02:14:40;;;;;;;1.40;0.60;;;;;;;10.10;100.00;97609.34;5060148;28;20704;-62
2023/04/24 02:17:07;;;;;;;1.55;0.68;;;;;;;10.14;100.00;97608.03;5049976;28;20434;-62
2023/04/24 02:19:37;;;;;;;0.50;0.40;;;;;;;10.11;100.00;97617.97;5059035;28;20274;-62
2023/04/24 02:22:03;;;;;;;3.33;0.50;;;;;;;10.08;100.00;97610.50;5054532;28;20242;-62
2023/04/24 02:24:30;;;;;;;2.67;0.50;;;;;;;10.10;100.00;97626.78;5057471;28;20226;-62
2023/04/24 02:26:57;;;;;;;1.90;0.67;;;;;;;10.22;100.00;97611.56;5052877;28;20231;-62
2023/04/24 02:29:26;;;;;;;5.33;0.90;;;;;;;10.28;100.00;97616.09;5056956;28;20230;-62
2023/04/24 02:31:54;;;;;;;4.30;0.50;;;;;;;10.37;100.00;97619.44;5051684;28;20238;-62
2023/04/24 02:34:20;;;;;;;1.90;0.60;;;;;;;10.40;100.00;97612.13;5054552;28;20234;-62
2023/04/24 02:36:47;;;;;;;1.13;0.50;;;;;;;10.46;99.79;97621.84;5050538;28;20221;-62
2023/04/24 02:39:38;;;;;;;1.83;0.40;;;;;;;10.53;99.30;97614.13;5059090;28;20229;-62
2023/04/24 02:42:05;;;;;;;1.60;0.60;;;;;;;10.56;98.85;97610.38;5050173;28;20304;-62
2023/04/24 02:44:31;;;;;;;1.87;0.57;;;;;;;10.63;97.40;97611.25;5054868;28;20626;-62
2023/04/24 02:46:59;;;;;;;3.57;0.40;;;;;;;10.70;96.91;97609.56;5054128;28;20315;-62
2023/04/24 02:49:26;;;;;;;0.67;0.40;;;;;;;10.68;98.61;97619.38;5050375;28;20870;-62
2023/04/24 02:51:54;;;;;;;2.10;0.50;;;;;;;10.71;99.52;97626.84;5053546;28;20590;-62
2023/04/24 02:54:20;;;;;;;2.73;0.60;;;;;;;10.80;98.13;97625.00;5055625;28;20223;-62
2023/04/24 02:56:47;;;;;;;0.97;0.30;;;;;;;10.77;96.47;97631.38;5067338;28;20224;-62
2023/04/24 02:59:19;;;;;;;2.00;0.50;;;;;;;10.79;96.56;97639.03;5054106;28;20620;-62
2023/04/24 03:04:29;;;;;;;0.70;0.40;;;;;;;10.85;96.71;97645.34;5427008;22;20217;-62
2023/04/24 03:06:56;;;;;;;1.87;0.50;;;;;;;10.87;94.41;97640.75;5039906;28;20241;-62
2023/04/24 03:09:23;;;;;;;1.17;0.67;;;;;;;10.86;97.51;97650.41;5051576;28;20238;-62
2023/04/24 03:11:50;;;;;;;1.63;0.47;;;;;;;10.85;96.67;97682.72;5042590;28;20265;-62
2023/04/24 03:14:20;;;;;;;2.77;1.00;;;;;;;10.59;96.84;97709.19;5049731;28;20238;-62
2023/04/24 03:16:46;;;;;;;2.47;1.13;;;;;;;9.73;98.78;97717.69;5027108;28;20227;-61
2023/04/24 03:19:40;;;;;;;2.50;1.13;;;;;;;9.34;100.00;97723.66;5025752;28;20300;-61
2023/04/24 03:22:11;;;;;;;1.57;1.10;;;;;;;8.92;100.00;97721.09;5021780;28;20630;-62
2023/04/24 03:24:38;;;;;;;2.57;1.30;;;;;;;8.87;100.00;97715.56;5024854;28;20238;-61
2023/04/24 03:27:05;;;;;;;3.93;1.40;;;;;;;8.91;100.00;97735.06;5005633;28;20237;-61
2023/04/24 03:29:46;;;;;;;2.90;1.30;;;;;;;8.87;100.00;97741.56;5015225;28;20247;-62
2023/04/24 03:32:14;;;;;;;2.33;1.37;;;;;;;8.95;100.00;97735.59;5231238;22;20348;-62
2023/04/24 03:34:42;;;;;;;2.23;1.53;;;;;;;8.99;100.00;97732.47;5028539;28;20237;-61
2023/04/24 03:37:10;;;;;;;2.97;1.60;;;;;;;8.99;100.00;97742.88;5009004;28;20724;-61
2023/04/24 03:39:41;;;;;;;20.70;11.03;;;;;;;9.03;100.00;97756.38;5008605;28;20226;-62
2023/04/24 03:42:08;;;;;;;4.03;1.87;;;;;;;9.05;100.00;97756.22;5013808;28;20239;-61
2023/04/24 03:44:46;;;;;;;2.93;1.50;;;;;;;9.03;100.00;97751.16;5007276;28;20257;-61
2023/04/24 03:47:12;;;;;;;2.67;1.77;;;;;;;9.04;100.00;97763.22;5014073;28;20267;-61
2023/04/24 03:49:39;;;;;;;13.73;12.37;;;;;;;9.07;100.00;97749.06;5014760;28;20739;-61
2023/04/24 03:52:07;;;;;;;9.20;8.27;;;;;;;9.07;100.00;97762.88;5003028;28;20235;-61
2023/04/24 03:54:34;;;;;;;3.57;1.90;;;;;;;9.10;100.00;97769.56;5007243;28;20227;-61
2023/04/24 03:57:01;;;;;;;3.97;3.10;;;;;;;9.06;100.00;97766.47;5007776;28;20222;-61
2023/04/24 03:59:29;;;;;;;2.83;1.70;;;;;;;9.01;100.00;97766.97;4994620;28;20236;-62
2023/04/24 04:02:09;;;;;;;5.80;3.20;;;;;;;9.03;100.00;97769.41;5006416;28;20238;-62
2023/04/24 04:04:35;;;;;;;5.17;3.70;;;;;;;8.97;100.00;97773.47;5011856;28;20219;-61
2023/04/24 04:07:02;;;;;;;5.40;2.43;;;;;;;8.93;100.00;97779.97;5033094;28;20240;-61
2023/04/24 04:09:30;;;;;;;2.57;1.60;;;;;;;8.89;100.00;97783.88;5016468;28;20726;-62
2023/04/24 04:11:57;;;;;;;5.97;2.10;;;;;;;8.83;100.00;97781.91;5017775;28;20632;-62
2023/04/24 04:14:23;;;;;;;2.93;2.17;;;;;;;8.83;100.00;97785.34;5018038;28;20226;-62
2023/04/24 04:16:50;;;;;;;2.93;2.10;;;;;;;8.82;100.00;97786.31;5015660;28;20297;-62
2023/04/24 04:19:20;;;;;;;4.13;1.93;;;;;;;8.83;100.00;97787.13;5017433;28;20284;-62
2023/04/24 04:21:51;;;;;;;4.07;1.97;;;;;;;8.81;100.00;97776.06;5013130;28;20710;-62
2023/04/24 04:24:57;;;;;;;6.80;2.10;;;;;;;8.68;100.00;97784.34;5022262;28;20228;-62
2023/04/24 04:27:26;;;;;;;5.33;3.40;;;;;;;8.67;100.00;97786.09;5020698;28;20640;-62
2023/04/24 04:30:04;;;;;;;3.47;2.50;;;;;;;8.70;100.00;97780.59;5018673;28;20774;-62
2023/04/24 04:32:35;;;;;;;2.23;2.00;;;;;;;8.68;100.00;97792.94;5024766;28;20564;-62
2023/04/24 04:35:03;;;;;;;4.00;2.40;;;;;;;8.74;100.00;97793.28;5021354;28;20566;-62
2023/04/24 04:37:33;;;;;;;4.67;3.17;;;;;;;8.73;100.00;97792.47;5015169;28;20228;-62
2023/04/24 04:40:11;;;;;;;8.77;4.60;;;;;;;8.75;100.00;97798.34;5012060;28;20230;-62
2023/04/24 04:42:45;;;;;;;4.70;3.63;;;;;;;8.80;100.00;97798.66;5012842;28;20230;-62
2023/04/24 04:45:13;;;;;;;5.70;3.63;;;;;;;8.84;100.00;97801.75;5017108;28;20647;-62
2023/04/24 04:47:56;;;;;;;6.33;3.37;;;;;;;8.87;100.00;97801.44;5010745;28;20688;-62
2023/04/24 04:50:23;;;;;;;8.83;4.57;;;;;;;8.97;100.00;97807.31;5015630;28;20241;-62
2023/04/24 04:52:53;;;;;;;4.73;3.10;;;;;;;9.10;100.00;97806.03;5012642;28;20233;-62
2023/04/24 04:55:28;;;;;;;4.43;3.13;;;;;;;9.26;100.00;97816.44;5014093;28;20318;-62
2023/04/24 04:58:08;;;;;;;4.90;3.70;;;;;;;9.43;100.00;97819.06;5012679;28;20321;-62
2023/04/24 05:00:35;;;;;;;5.03;3.10;;;;;;;9.50;100.00;97817.44;5025535;28;20230;-62
2023/04/24 05:03:06;;;;;;;11.27;8.13;;;;;;;9.56;100.00;97811.53;5011605;28;20266;-62
2023/04/24 05:05:33;;;;;;;6.23;3.80;;;;;;;9.64;100.00;97807.28;5032032;28;20226;-62
2023/04/24 05:08:00;;;;;;;4.20;3.10;;;;;;;9.59;100.00;97810.41;5029650;28;20221;-62
2023/04/24 05:10:28;;;;;;;10.67;6.40;;;;;;;9.53;100.00;97821.50;5014292;28;20237;-62
2023/04/24 05:12:56;;;;;;;4.17;2.47;;;;;;;9.46;100.00;97826.56;5012824;28;20265;-62
2023/04/24 05:15:22;;;;;;;3.63;2.73;;;;;;;9.52;100.00;97833.72;5010692;28;20396;-62
2023/04/24 05:17:49;;;;;;;2.72;2.10;;;;;;;9.53;100.00;97837.13;5010981;28;20429;-62
2023/04/24 05:20:16;;;;;;;4.90;3.00;;;;;;;9.51;100.00;97844.28;5013264;28;20311;-62
2023/04/24 05:22:43;;;;;;;3.47;1.60;;;;;;;9.49;100.00;97843.63;5013587;28;20231;-62
2023/04/24 05:25:10;;;;;;;3.87;1.97;;;;;;;9.45;100.00;97840.56;5016996;28;20586;-62
2023/04/24 05:27:44;;;;;;;3.23;1.83;;;;;;;9.46;100.00;97847.38;5010770;28;20268;-62
2023/04/24 05:30:15;;;;;;;5.20;1.87;;;;;;;9.49;100.00;97847.06;5014998;28;20639;-62
2023/04/24 05:32:42;;;;;;;2.30;1.43;;;;;;;9.45;100.00;97854.38;5018901;28;20230;-62
2023/04/24 05:35:09;;;;;;;4.87;1.80;;;;;;;9.50;100.00;97858.28;5021755;28;20237;-62
2023/04/24 05:37:36;;;;;;;4.23;1.80;;;;;;;9.43;100.00;97852.91;5015373;28;20234;-62
2023/04/24 05:40:05;;;;;;;4.27;1.70;;;;;;;9.40;99.54;97858.47;5012086;28;20230;-62
2023/04/24 05:42:31;;;;;;;2.17;1.67;;;;;;;9.45;100.00;97850.97;5025994;28;20640;-62
2023/04/24 05:44:59;;;;;;;3.87;1.60;;;;;;;9.47;100.00;97849.03;5013278;28;20227;-62
2023/04/24 05:47:27;;;;;;;3.03;1.97;;;;;;;9.42;100.00;97854.69;5031720;28;20240;-62
2023/04/24 05:49:54;;;;;;;3.27;2.10;;;;;;;9.40;100.00;97859.25;5013440;28;20273;-62
2023/04/24 05:52:21;;;;;;;5.00;2.17;;;;;;;9.38;100.00;97863.00;5029105;28;20246;-61
2023/04/24 05:54:49;;;;;;;3.63;2.00;;;;;;;9.38;100.00;97873.44;5018500;28;20244;-63
2023/04/24 05:57:20;;;;;;;3.03;1.57;;;;;;;9.42;100.00;97879.94;5016751;28;20223;-63
2023/04/24 05:59:54;;;;;;;2.87;1.63;;;;;;;9.37;100.00;97882.22;5013420;28;20317;-63
2023/04/24 06:02:23;;;;;;;4.10;3.00;;;;;;;9.34;100.00;97887.75;5018060;28;20990;-62
2023/04/24 06:04:50;;;;;;;4.17;1.93;;;;;;;9.37;100.00;97892.63;4995702;28;20226;-62
2023/04/24 06:07:18;;;;;;;3.90;1.77;;;;;;;9.38;100.00;97889.06;5020344;28;20245;-62
2023/04/24 06:09:45;;;;;;;5.10;2.30;;;;;;;9.42;100.00;97898.97;5015005;28;20235;-61
2023/04/24 06:12:12;;;;;;;6.00;2.23;;;;;;;9.48;100.00;97909.72;5036480;28;20234;-63
2023/04/24 06:14:55;;;;;;;5.90;1.90;;;;;;;9.46;98.22;97907.31;5011613;28;20293;-62
2023/04/24 06:17:29;;;;;;;3.63;2.70;;;;;;;9.51;98.58;97907.63;5017250;28;20223;-62
2023/04/24 06:19:56;;;;;;;2.83;2.00;;;;;;;9.54;100.00;97917.69;5018575;28;20232;-61
2023/04/24 06:22:25;;;;;;;2.93;1.73;;;;;;;9.59;99.45;97912.81;5018634;28;20230;-61
2023/04/24 06:24:52;;;;;;;5.13;2.10;;;;;;;9.48;100.00;97918.38;5014190;28;20263;-62
2023/04/24 06:27:18;;;;;;;4.17;2.77;;;;;;;9.56;100.00;97918.34;5018046;28;20327;-62
2023/04/24 06:29:45;;;;;;;6.77;4.07;;;;;;;9.59;100.00;97919.84;5033159;28;20240;-62
2023/04/24 06:32:12;;;;;;;4.97;3.10;;;;;;;9.63;100.00;97920.31;5026944;28;20232;-61
2023/04/24 06:34:40;;;;;;;4.40;2.73;;;;;;;9.55;99.08;97923.75;5027775;28;20690;-62
2023/04/24 06:37:06;;;;;;;5.37;3.10;;;;;;;9.66;98.99;97928.63;5012781;28;20332;-60
2023/04/24 06:39:33;;;;;;;3.77;2.43;;;;;;;9.83;97.52;97931.25;5035559;28;20238;-61
2023/04/24 06:42:00;;;;;;;7.47;2.20;;;;;;;9.86;95.93;97936.13;5034285;28;20612;-61
2023/04/24 06:44:26;;;;;;;4.33;2.20;;;;;;;9.98;92.80;97934.00;5033165;28;20564;-61
2023/04/24 06:46:53;;;;;;;4.77;2.20;;;;;;;10.02;88.58;97945.75;5030999;28;20627;-61
2023/04/24 06:49:20;;;;;;;3.80;2.00;;;;;;;9.94;86.38;97957.00;5036131;28;20240;-61
2023/04/24 06:51:48;;;;;;;4.93;2.00;;;;;;;10.02;83.98;97962.22;5027797;28;20224;-61
2023/04/24 06:54:20;;;;;;;2.10;1.80;;;;;;;9.97;84.17;97956.69;5035534;28;20252;-61
2023/04/24 06:56:47;;;;;;;2.43;1.87;;;;;;;9.89;83.04;97954.88;5031473;28;20258;-61
2023/04/24 06:59:39;;;;;;;4.43;1.90;;;;;;;9.78;84.86;97960.41;5035270;28;20772;-61
2023/04/24 07:02:05;;;;;;;2.80;2.33;;;;;;;9.65;87.49;97945.25;5033096;28;20296;-61
2023/04/24 07:04:32;;;;;;;4.60;2.10;;;;;;;9.74;90.02;97948.66;5034070;28;20327;-61
2023/04/24 07:07:00;;;;;;;6.00;2.80;;;;;;;9.75;90.15;97958.13;5032088;28;20242;-61
2023/04/24 07:09:27;;;;;;;3.17;2.10;;;;;;;9.93;89.51;97963.19;5034069;28;20293;-62
2023/04/24 07:11:56;;;;;;;3.40;2.10;;;;;;;10.24;91.50;97959.09;5033385;28;20242;-61
2023/04/24 07:14:23;;;;;;;4.47;2.80;;;;;;;10.13;91.56;97960.22;5035293;28;20234;-61
2023/04/24 07:16:49;;;;;;;3.03;2.37;;;;;;;10.11;88.33;97952.56;5033570;28;20225;-61
2023/04/24 07:19:20;;;;;;;8.50;2.60;;;;;;;9.86;89.80;97957.00;5035224;28;20229;-61
2023/04/24 07:21:47;;;;;;;4.43;2.53;;;;;;;10.08;87.50;97952.06;5025946;28;20249;-61
2023/04/24 07:24:40;;;;;;;5.47;2.63;;;;;;;10.03;88.83;97956.03;5032507;28;20228;-61
2023/04/24 07:27:06;;;;;;;4.57;2.60;;;;;;;9.98;87.07;97950.47;5029474;28;20241;-61
2023/04/24 07:29:33;;;;;;;3.43;2.40;;;;;;;9.91;85.93;97967.75;5032246;28;20289;-61
2023/04/24 07:31:59;;;;;;;4.93;2.23;;;;;;;9.80;88.28;97963.66;5031429;28;20242;-61
2023/04/24 07:34:26;;;;;;;5.03;2.57;;;;;;;9.86;89.99;97972.63;5037161;28;20235;-61
2023/04/24 07:36:55;;;;;;;4.53;2.83;;;;;;;9.91;86.47;97980.78;5011711;28;20810;-61
2023/04/24 07:39:22;;;;;;;4.33;2.60;;;;;;;9.84;87.87;97966.78;5026345;28;20689;-61
2023/04/24 07:41:50;;;;;;;3.33;2.37;;;;;;;9.88;87.26;97976.69;5037462;28;20234;-61
2023/04/24 07:44:20;;;;;;;3.87;2.83;;;;;;;9.96;88.72;97982.88;5016523;28;20283;-61
2023/04/24 07:46:47;;;;;;;4.93;2.53;;;;;;;9.96;85.21;97981.13;5032765;28;20269;-61
2023/04/24 07:49:39;;;;;;;3.80;1.83;;;;;;;10.00;84.99;97989.41;5033804;28;20243;-60
2023/04/24 07:52:05;;;;;;;6.87;2.40;;;;;;;9.97;80.63;97997.56;5025915;28;20234;-61
2023/04/24 07:54:32;;;;;;;6.20;2.63;;;;;;;9.69;82.23;97998.69;5035380;28;20237;-61
2023/04/24 07:57:00;;;;;;;3.07;2.67;;;;;;;9.63;82.44;97999.31;5031107;28;20230;-61
2023/04/24 07:59:27;;;;;;;6.70;2.40;;;;;;;9.52;80.58;98003.06;5034063;28;20235;-61
2023/04/24 08:01:54;;;;;;;4.93;2.10;;;;;;;9.34;81.27;98015.38;5028671;28;20694;-60
2023/04/24 08:04:21;;;;;;;4.73;2.27;;;;;;;9.26;81.67;98014.38;5032862;28;20265;-61
2023/04/24 08:06:48;;;;;;;4.33;2.50;;;;;;;9.53;83.11;98027.31;5032726;28;20243;-61
2023/04/24 08:09:20;;;;;;;2.90;2.50;;;;;;;9.74;80.83;98038.09;5035307;28;20324;-61
2023/04/24 08:11:47;;;;;;;5.77;2.10;;;;;;;9.93;76.04;98035.34;5031072;28;20320;-61
2023/04/24 08:14:46;;;;;;;2.77;1.90;;;;;;;9.86;77.88;98036.00;5035820;28;20237;-61
2023/04/24 08:17:12;;;;;;;4.13;2.10;;;;;;;9.98;75.61;98043.50;5011631;28;20444;-61
2023/04/24 08:19:42;;;;;;;3.03;1.70;;;;;;;10.13;75.22;98041.06;5030338;28;20229;-61
2023/04/24 08:22:09;;;;;;;2.30;1.90;;;;;;;9.98;75.83;98040.91;5026168;28;20235;-61
2023/04/24 08:24:36;;;;;;;3.57;1.93;;;;;;;9.83;78.41;98054.56;5035113;28;20692;-61
2023/04/24 08:27:03;;;;;;;3.07;2.40;;;;;;;9.96;78.16;98048.91;5031444;28;20585;-61
2023/04/24 08:29:29;;;;;;;3.83;2.60;;;;;;;9.92;75.58;98060.63;5032266;28;20497;-61
2023/04/24 08:31:57;;;;;;;4.57;1.60;;;;;;;9.85;71.83;98059.63;5029545;28;20274;-61
2023/04/24 08:34:24;;;;;;;4.13;1.70;;;;;;;9.77;70.23;98076.06;5027976;28;20319;-61
2023/04/24 08:36:51;;;;;;;2.73;2.07;;;;;;;9.71;69.50;98074.91;5029234;28;20223;-61
2023/04/24 08:39:21;;;;;;;5.70;2.60;;;;;;;9.70;74.06;98077.66;5032148;28;20238;-61
2023/04/24 08:41:49;;;;;;;4.87;1.73;;;;;;;9.70;70.17;98091.53;5029309;28;20376;-61
2023/04/24 08:44:21;;;;;;;2.97;1.60;;;;;;;9.47;70.45;98069.63;5021934;28;20329;-61
2023/04/24 08:46:51;;;;;;;3.03;1.63;;;;;;;9.60;70.76;98078.59;5028675;28;20222;-61
2023/04/24 08:49:25;;;;;;;3.67;1.50;;;;;;;9.51;73.71;98094.38;5032651;28;20708;-61
2023/04/24 08:51:53;;;;;;;2.83;1.50;;;;;;;9.74;71.91;98094.63;5031848;28;20993;-61
2023/04/24 08:54:21;;;;;;;2.97;1.50;;;;;;;9.93;68.73;98095.31;5032687;28;20924;-61
2023/04/24 08:56:49;;;;;;;2.87;1.50;;;;;;;10.28;68.05;98094.22;5030280;28;20253;-61
2023/04/24 08:59:23;;;;;;;4.47;1.70;;;;;;;10.43;67.96;98086.63;5032053;28;20241;-61
2023/04/24 09:01:51;;;;;;;2.80;1.70;;;;;;;10.76;67.06;98086.56;5030471;28;20227;-61
2023/04/24 09:04:24;;;;;;;3.00;1.70;;;;;;;11.14;68.15;98095.66;5034219;28;20226;-61
2023/04/24 09:06:51;;;;;;;6.77;1.50;;;;;;;11.36;65.93;98100.16;5032098;28;20235;-61
2023/04/24 09:09:22;;;;;;;4.23;1.53;;;;;;;11.73;62.64;98105.72;5033418;28;20568;-61
2023/04/24 09:11:50;;;;;;;3.30;1.40;;;;;;;11.44;61.74;98101.09;5028830;28;20230;-61
2023/04/24 09:14:22;;;;;;;1.90;1.40;;;;;;;11.55;62.65;98100.75;5035709;28;20234;-61
2023/04/24 09:16:57;;;;;;;3.13;1.60;;;;;;;11.30;62.12;98120.91;5027895;28;20318;-61
2023/04/24 09:19:25;;;;;;;3.13;1.40;;;;;;;10.94;64.25;98114.28;5031352;28;20579;-61
2023/04/24 09:21:54;;;;;;;2.77;1.23;;;;;;;10.68;65.31;98115.28;5030444;28;20245;-61
2023/04/24 09:24:23;;;;;;;2.20;1.37;;;;;;;10.56;64.25;98122.66;5033830;28;20308;-61
2023/04/24 09:26:57;;;;;;;4.50;1.40;;;;;;;10.55;67.06;98123.63;5033941;28;20220;-61
2023/04/24 09:29:23;;;;;;;4.87;1.53;;;;;;;10.77;63.73;98119.53;5038422;28;20233;-61
2023/04/24 09:31:50;;;;;;;3.53;1.30;;;;;;;10.92;64.53;98119.69;5032246;28;20230;-61
2023/04/24 09:34:22;;;;;;;4.57;1.70;;;;;;;10.87;66.68;98124.59;5035771;28;20235;-61
2023/04/24 09:36:51;;;;;;;1.83;1.43;;;;;;;10.76;66.70;98128.34;5032526;28;20320;-61
2023/04/24 09:39:23;;;;;;;3.80;1.30;;;;;;;10.84;65.14;98129.31;5025216;28;20226;-61
2023/04/24 09:41:57;;;;;;;2.77;1.30;;;;;;;10.57;66.02;98134.72;5001413;28;20249;-61
2023/04/24 09:44:26;;;;;;;2.40;1.47;;;;;;;10.50;67.65;98136.34;5013411;28;20284;-61
2023/04/24 09:46:56;;;;;;;2.70;1.37;;;;;;;10.45;65.60;98136.00;5032522;28;20218;-61
2023/04/24 09:49:25;;;;;;;2.93;1.50;;;;;;;10.39;65.11;98139.22;5028843;28;20238;-61
2023/04/24 09:51:53;;;;;;;1.77;1.00;;;;;;;10.06;68.80;98145.22;5035767;28;20241;-61
2023/04/24 09:54:22;;;;;;;1.33;1.10;;;;;;;10.20;70.03;98154.19;5032504;28;20222;-61
2023/04/24 09:56:50;;;;;;;3.27;1.60;;;;;;;10.24;69.13;98149.50;5037861;28;20234;-61
2023/04/24 09:59:21;;;;;;;2.00;1.30;;;;;;;10.36;67.10;98155.22;5031499;28;20318;-62
2023/04/24 10:01:49;;;;;;;2.63;1.10;;;;;;;10.24;68.64;98152.09;5030392;28;20736;-61
2023/04/24 10:04:23;;;;;;;2.10;1.37;;;;;;;10.46;67.60;98156.75;5034254;28;20855;-61
2023/04/24 10:06:51;;;;;;;3.53;1.67;;;;;;;10.62;66.92;98165.53;5032831;28;20652;-61
2023/04/24 10:09:26;;;;;;;3.17;1.10;;;;;;;10.71;67.51;98148.91;5035903;28;20577;-61
2023/04/24 10:11:54;;;;;;;2.80;1.80;;;;;;;10.73;67.34;98153.97;5034828;28;20238;-61
2023/04/24 10:14:23;;;;;;;4.03;1.63;;;;;;;10.95;65.78;98159.50;5036598;28;20234;-61
2023/04/24 10:16:53;;;;;;;3.17;1.33;;;;;;;10.57;70.00;98154.78;5032981;28;20223;-60
2023/04/24 10:19:22;;;;;;;4.93;1.37;;;;;;;10.57;68.97;98152.97;5035111;28;20235;-61
2023/04/24 10:21:50;;;;;;;3.23;1.50;;;;;;;10.56;68.84;98161.00;5029294;28;20266;-60
2023/04/24 10:24:22;;;;;;;2.27;1.50;;;;;;;10.24;69.69;98167.75;5035758;28;20275;-59
2023/04/24 10:26:49;;;;;;;2.67;1.53;;;;;;;10.30;70.85;98167.13;5014577;28;20241;-60
2023/04/24 10:29:24;;;;;;;3.50;1.40;;;;;;;10.52;70.25;98170.91;5036247;28;20225;-61
2023/04/24 10:31:51;;;;;;;3.50;1.40;;;;;;;11.16;69.60;98178.06;5031683;28;20223;-61
2023/04/24 10:34:22;;;;;;;2.50;1.53;;;;;;;11.77;67.98;98161.06;5031548;28;20219;-60
2023/04/24 10:36:52;;;;;;;3.80;1.50;;;;;;;12.01;66.89;98167.22;5028174;28;20692;-61
2023/04/24 10:39:22;;;;;;;2.77;1.30;;;;;;;12.66;65.79;98168.59;5033389;28;20609;-61
2023/04/24 10:41:49;;;;;;;0.00;0.00;;;;;;;12.95;63.37;98171.47;5034996;28;20239;-61
2023/04/24 10:44:23;;;;;;;0.00;0.00;;;;;;;13.12;61.22;98172.97;5031854;28;20223;-61
2023/04/24 10:46:54;;;;;;;0.00;0.00;;;;;;;12.53;64.98;98169.22;5030472;28;20230;-62
2023/04/24 10:49:29;;;;;;;0.00;0.00;;;;;;;11.95;63.64;98171.31;5035948;28;20234;-61
2023/04/24 10:52:01;;;;;;;0.00;0.00;;;;;;;11.51;64.87;98175.25;5032699;28;20245;-63
2023/04/24 10:54:34;;;;;;;0.00;0.00;;;;;;;10.99;66.71;98187.72;5031567;28;20725;-61
2023/04/24 10:57:28;;;;;;;2.93;1.30;;;;;;;10.70;66.16;98177.78;5032465;28;20233;-61
2023/04/24 11:00:16;;;;;;;1.67;1.20;;;;;;;10.60;69.14;98183.19;5031778;28;20784;-61
2023/04/24 11:02:48;;;;;;;4.20;1.10;;;;;;;11.08;77.25;98191.97;5030580;28;20345;-56
2023/04/24 11:05:21;;;;;;;2.43;1.60;;;;;;;10.57;66.81;98189.53;5034181;28;20230;-62
2023/04/24 11:08:13;;;;;;;3.63;1.67;;;;;;;10.69;66.83;98191.81;5031857;28;20359;-61
2023/04/24 11:10:45;;;;;;;3.53;1.73;;;;;;;10.56;68.22;98193.09;5034023;28;20299;-59
2023/04/24 11:13:14;;;;;;;5.17;1.80;;;;;;;10.69;66.98;98189.22;5029383;28;20249;-60
2023/04/24 11:15:43;;;;;;;4.10;1.90;;;;;;;10.72;67.94;98188.88;5035683;28;20217;-61
2023/04/24 11:18:14;;;;;;;2.53;1.60;;;;;;;11.04;68.07;98182.03;5012491;28;20245;-62
2023/04/24 11:20:43;;;;;;;2.60;1.43;;;;;;;11.15;67.62;98186.09;5035867;28;20232;-61
2023/04/24 11:23:13;;;;;;;3.57;1.70;;;;;;;10.85;68.54;98186.59;5011629;28;20225;-61
2023/04/24 11:25:40;;;;;;;4.40;1.50;;;;;;;10.59;69.27;98189.38;5032552;28;20256;-61
2023/04/24 11:28:08;;;;;;;3.63;1.60;;;;;;;10.68;68.85;98190.19;5029361;28;20229;-61
2023/04/24 11:30:35;;;;;;;1.87;1.30;;;;;;;10.51;70.26;98195.38;5030827;28;20761;-62
2023/04/24 11:33:05;;;;;;;6.27;1.50;;;;;;;10.48;71.14;98206.97;5033298;28;20316;-61
2023/04/24 11:35:37;;;;;;;4.57;1.80;;;;;;;10.24;69.69;98210.28;5031931;28;20235;-60
2023/04/24 11:38:05;;;;;;;4.83;1.63;;;;;;;10.36;65.77;98210.81;5030860;28;20219;-60
2023/04/24 11:40:32;;;;;;;3.30;1.70;;;;;;;10.29;67.36;98202.81;5035392;28;20379;-61
2023/04/24 11:43:01;;;;;;;3.60;2.00;;;;;;;10.23;67.88;98223.50;5030377;28;20250;-60
2023/04/24 11:45:30;;;;;;;2.47;1.70;;;;;;;10.19;69.61;98221.22;5032083;28;20590;-62
2023/04/24 11:47:58;;;;;;;3.47;1.70;;;;;;;10.27;69.41;98214.38;5032622;28;20689;-62
2023/04/24 11:50:27;;;;;;;2.87;2.00;;;;;;;10.31;70.15;98206.06;5033788;28;20286;-61